Time;durP1;ratioP1;P1;durP2;ratioP2;P2;SDS_P1;SDS_P2;PMS_P1;PMS_P2;Temp;Humidity;BMP_temperature;BMP_pressure;BME280_temperature;BME280_humidity;BME280_pressure;Samples;Min_cycle;Max_cycle;Signal;HPM_P1;HPM_P2
2021/03/10 00:00:07;;;;;;;53.85;24.60;;;0.10;99.90;;;;;;4143439;28;20607;-74
2021/03/10 00:02:08;;;;;;;61.25;27.13;;;0.10;99.90;;;;;;4140574;28;20049;-74
2021/03/10 00:04:09;;;;;;;63.80;25.52;;;0.10;99.90;;;;;;4144644;28;20045;-74
2021/03/10 00:06:09;;;;;;;67.38;24.92;;;0.10;99.90;;;;;;4168457;28;20049;-74
2021/03/10 00:08:10;;;;;;;65.65;26.63;;;0.10;99.90;;;;;;4143567;28;20435;-74
2021/03/10 00:10:11;;;;;;;58.60;25.83;;;0.10;99.90;;;;;;4143833;28;20086;-75
2021/03/10 00:12:12;;;;;;;68.65;29.40;;;0.00;99.90;;;;;;4143870;28;20030;-75
2021/03/10 00:14:13;;;;;;;60.90;27.15;;;0.00;99.90;;;;;;4142048;28;20030;-74
2021/03/10 00:16:13;;;;;;;67.28;26.02;;;-0.10;99.90;;;;;;4144886;28;20029;-74
2021/03/10 00:18:14;;;;;;;59.15;26.60;;;-0.10;99.90;;;;;;4144816;28;20117;-74
2021/03/10 00:20:16;;;;;;;59.08;27.25;;;-0.10;99.90;;;;;;4144416;28;20034;-74
2021/03/10 00:22:17;;;;;;;50.30;25.42;;;-0.10;99.90;;;;;;4173824;28;20040;-74
2021/03/10 00:24:17;;;;;;;55.95;26.20;;;-0.10;99.90;;;;;;4175415;28;20029;-74
2021/03/10 00:26:18;;;;;;;61.63;28.80;;;-0.20;99.90;;;;;;4142970;28;20034;-74
2021/03/10 00:28:19;;;;;;;55.78;24.35;;;-0.30;99.90;;;;;;4147688;28;20033;-74
2021/03/10 00:30:20;;;;;;;55.55;26.23;;;-0.30;99.90;;;;;;4147760;28;20041;-75
2021/03/10 00:32:22;;;;;;;66.30;27.23;;;-0.30;99.90;;;;;;4146435;28;20365;-74
2021/03/10 00:34:22;;;;;;;84.72;29.95;;;-0.30;99.90;;;;;;4146362;28;20497;-76
2021/03/10 00:36:23;;;;;;;74.75;29.42;;;-0.30;99.90;;;;;;4147903;28;20029;-75
2021/03/10 00:38:23;;;;;;;68.70;28.90;;;-0.20;99.90;;;;;;4147725;28;20038;-74
2021/03/10 00:40:24;;;;;;;61.33;26.77;;;-0.20;99.90;;;;;;4172777;28;20034;-75
2021/03/10 00:42:25;;;;;;;66.38;26.75;;;-0.20;99.90;;;;;;4136575;28;20026;-75
2021/03/10 00:44:26;;;;;;;73.22;29.75;;;-0.30;99.90;;;;;;4143175;28;20030;-74
2021/03/10 00:46:26;;;;;;;77.18;31.27;;;-0.30;99.90;;;;;;4155894;28;20033;-75
2021/03/10 00:48:27;;;;;;;74.10;28.65;;;-0.20;99.90;;;;;;4142152;28;20103;-75
2021/03/10 00:50:28;;;;;;;78.72;28.65;;;-0.20;99.90;;;;;;4145727;28;20117;-75
2021/03/10 00:52:29;;;;;;;70.05;29.17;;;-0.10;99.90;;;;;;4146037;28;20535;-75
2021/03/10 00:54:29;;;;;;;74.65;29.73;;;-0.10;99.90;;;;;;4145083;28;20045;-74
2021/03/10 00:56:30;;;;;;;86.82;30.35;;;-0.20;99.90;;;;;;4144743;28;20037;-75
2021/03/10 00:58:30;;;;;;;64.97;28.40;;;-0.30;99.90;;;;;;4139620;28;20066;-74
2021/03/10 01:00:31;;;;;;;62.92;27.98;;;-0.30;99.90;;;;;;4145082;28;20037;-76
2021/03/10 01:02:32;;;;;;;72.18;30.77;;;-0.30;99.90;;;;;;4174717;28;20503;-74
2021/03/10 01:04:32;;;;;;;69.78;29.60;;;-0.20;99.90;;;;;;4145537;28;20030;-73
2021/03/10 01:06:33;;;;;;;74.97;28.83;;;-0.20;99.90;;;;;;4143548;28;20120;-74
2021/03/10 01:08:34;;;;;;;78.95;28.80;;;-0.20;99.90;;;;;;4146587;28;20038;-74
2021/03/10 01:10:35;;;;;;;76.20;32.30;;;-0.30;99.90;;;;;;4152069;28;20037;-75
2021/03/10 01:12:36;;;;;;;69.90;28.15;;;-0.30;99.90;;;;;;4142623;28;20026;-74
2021/03/10 01:14:36;;;;;;;69.05;28.65;;;-0.40;99.90;;;;;;4145133;28;20372;-74
2021/03/10 01:16:37;;;;;;;77.65;31.10;;;-0.40;99.90;;;;;;4147091;28;20042;-74
2021/03/10 01:18:38;;;;;;;70.47;27.65;;;-0.40;99.90;;;;;;4145333;28;20056;-74
2021/03/10 01:20:38;;;;;;;70.80;28.55;;;-0.40;99.90;;;;;;4174263;28;20120;-74
2021/03/10 01:22:39;;;;;;;67.32;26.75;;;-0.40;99.90;;;;;;4140474;28;20030;-74
2021/03/10 01:24:40;;;;;;;67.43;28.50;;;-0.50;99.90;;;;;;4145642;28;20108;-74
2021/03/10 01:26:40;;;;;;;77.68;28.45;;;-0.50;99.90;;;;;;4143703;28;20047;-74
2021/03/10 01:28:41;;;;;;;79.15;30.58;;;-0.50;99.90;;;;;;4143696;28;20045;-74
2021/03/10 01:30:42;;;;;;;80.60;30.52;;;-0.40;99.90;;;;;;4143994;28;20049;-74
2021/03/10 01:32:43;;;;;;;75.80;28.23;;;-0.40;99.90;;;;;;4145221;28;20394;-74
2021/03/10 01:34:43;;;;;;;84.57;28.52;;;-0.40;99.90;;;;;;4145254;28;20040;-74
2021/03/10 01:36:44;;;;;;;83.75;30.63;;;-0.50;99.90;;;;;;4142109;28;20389;-74
2021/03/10 01:38:45;;;;;;;91.53;28.45;;;-0.50;99.90;;;;;;4145114;28;20128;-74
2021/03/10 01:40:45;;;;;;;73.57;26.73;;;-0.50;99.90;;;;;;4144853;28;20033;-74
2021/03/10 01:42:46;;;;;;;79.72;27.02;;;-0.50;99.90;;;;;;4143188;28;20084;-74
2021/03/10 01:44:47;;;;;;;69.63;27.80;;;-0.50;99.90;;;;;;4139833;28;20034;-75
2021/03/10 01:46:48;;;;;;;70.60;26.95;;;-0.50;99.90;;;;;;4139909;28;20033;-74
2021/03/10 01:48:48;;;;;;;78.90;27.67;;;-0.40;99.90;;;;;;4146151;28;20084;-75
2021/03/10 01:50:49;;;;;;;70.85;28.08;;;-0.40;99.90;;;;;;4145187;28;20085;-74
2021/03/10 01:52:50;;;;;;;80.82;28.70;;;-0.40;99.90;;;;;;4146773;28;20105;-74
2021/03/10 01:54:51;;;;;;;73.00;28.77;;;-0.40;99.90;;;;;;4144517;28;20545;-74
2021/03/10 01:56:52;;;;;;;90.35;30.83;;;-0.40;99.90;;;;;;4144679;28;20540;-74
2021/03/10 01:58:54;;;;;;;75.10;29.42;;;-0.40;99.90;;;;;;4175739;28;20080;-74
2021/03/10 02:00:54;;;;;;;83.18;30.83;;;-0.40;99.90;;;;;;4140507;28;20064;-74
2021/03/10 02:02:55;;;;;;;90.88;30.77;;;-0.30;99.90;;;;;;4144623;28;20026;-74
2021/03/10 02:04:56;;;;;;;73.35;28.38;;;-0.30;99.90;;;;;;4142933;28;20507;-74
2021/03/10 02:07:28;;;;;;;84.43;31.58;;;-0.20;99.90;;;;;;4172964;28;20041;-74
2021/03/10 02:09:54;;;;;;;74.57;30.27;;;-0.20;99.90;;;;;;4117853;28;20437;-74
2021/03/10 02:12:14;;;;;;;81.72;29.90;;;-0.10;99.90;;;;;;4152165;28;20045;-74
2021/03/10 02:14:49;;;;;;;86.85;31.17;;;-0.10;99.90;;;;;;4172111;28;20060;-74
2021/03/10 02:16:58;;;;;;;84.65;32.47;;;0.00;99.90;;;;;;4121497;28;20066;-74
2021/03/10 02:19:27;;;;;;;86.55;33.95;;;0.10;99.90;;;;;;4142576;28;20092;-74
2021/03/10 02:21:55;;;;;;;95.20;33.13;;;0.20;99.90;;;;;;4117795;28;20041;-74
2021/03/10 02:24:02;;;;;;;100.03;35.42;;;0.30;99.90;;;;;;4173218;28;20631;-74
2021/03/10 02:26:28;;;;;;;100.45;36.35;;;0.50;99.90;;;;;;4141657;28;20034;-74
2021/03/10 02:28:30;;;;;;;100.97;36.15;;;0.60;99.90;;;;;;4144627;28;20072;-74
2021/03/10 02:30:42;;;;;;;107.88;39.20;;;0.70;99.90;;;;;;4143666;28;20064;-73
2021/03/10 02:32:51;;;;;;;102.68;38.28;;;0.80;99.90;;;;;;4144603;28;20041;-74
2021/03/10 02:34:52;;;;;;;104.05;36.75;;;0.80;99.90;;;;;;4143228;28;20026;-74
2021/03/10 02:36:54;;;;;;;95.93;36.53;;;0.90;99.90;;;;;;4145930;28;20042;-74
2021/03/10 02:38:59;;;;;;;104.80;39.33;;;1.00;99.90;;;;;;4171141;28;20041;-74
2021/03/10 02:41:00;;;;;;;101.18;38.60;;;1.00;99.90;;;;;;4145038;28;20061;-74
2021/03/10 02:43:01;;;;;;;93.05;39.38;;;1.10;99.90;;;;;;4144564;28;20073;-75
2021/03/10 02:45:03;;;;;;;101.10;39.72;;;1.10;99.90;;;;;;4138180;28;20045;-73
2021/03/10 02:47:04;;;;;;;102.13;40.22;;;1.10;99.90;;;;;;4142321;28;20038;-73
2021/03/10 02:49:06;;;;;;;107.43;41.08;;;1.20;99.90;;;;;;4145573;28;20029;-73
2021/03/10 02:51:07;;;;;;;108.25;42.05;;;1.20;99.90;;;;;;4145719;28;20030;-74
2021/03/10 02:53:08;;;;;;;102.28;40.20;;;1.20;99.90;;;;;;4142657;28;20076;-74
2021/03/10 02:55:10;;;;;;;107.82;43.58;;;1.30;99.90;;;;;;4145612;28;20053;-73
2021/03/10 02:57:11;;;;;;;92.50;40.08;;;1.40;99.90;;;;;;4144402;28;20046;-73
2021/03/10 02:59:13;;;;;;;107.90;41.22;;;1.40;99.90;;;;;;4142737;28;20528;-73
2021/03/10 03:01:14;;;;;;;105.47;39.80;;;1.40;99.90;;;;;;4140575;28;20030;-74
2021/03/10 03:03:15;;;;;;;105.05;39.53;;;1.40;99.90;;;;;;4145343;28;20059;-74
2021/03/10 03:05:16;;;;;;;93.03;39.15;;;1.50;99.90;;;;;;4142834;28;20037;-74
2021/03/10 03:07:16;;;;;;;99.97;40.22;;;1.50;99.90;;;;;;4144296;28;20034;-74
2021/03/10 03:09:17;;;;;;;94.15;39.85;;;1.60;99.90;;;;;;4144153;28;20108;-74
2021/03/10 03:11:18;;;;;;;106.68;39.40;;;1.60;99.90;;;;;;4134074;28;20035;-74
2021/03/10 03:13:22;;;;;;;98.60;38.75;;;1.70;99.90;;;;;;4145489;28;20033;-73
2021/03/10 03:15:24;;;;;;;99.85;41.03;;;1.70;99.90;;;;;;4143685;28;20029;-74
2021/03/10 03:17:25;;;;;;;98.55;38.60;;;1.70;99.90;;;;;;4144249;28;20030;-74
2021/03/10 03:19:27;;;;;;;90.07;39.53;;;1.80;99.90;;;;;;4143803;28;20385;-73
2021/03/10 03:21:28;;;;;;;95.90;37.25;;;1.80;99.90;;;;;;4144063;28;20084;-74
2021/03/10 03:23:30;;;;;;;88.07;37.03;;;1.80;99.90;;;;;;4144994;28;20492;-74
2021/03/10 03:25:38;;;;;;;88.50;36.47;;;1.90;99.90;;;;;;4144169;28;20030;-74
2021/03/10 03:27:40;;;;;;;81.32;35.67;;;1.90;99.90;;;;;;4142327;28;20512;-74
2021/03/10 03:29:41;;;;;;;85.03;35.35;;;1.90;99.90;;;;;;4145150;28;20473;-74
2021/03/10 03:31:43;;;;;;;81.85;36.15;;;1.90;99.90;;;;;;4134690;28;20476;-73
2021/03/10 03:33:44;;;;;;;81.32;35.60;;;1.90;99.90;;;;;;4141831;28;20478;-74
2021/03/10 03:35:49;;;;;;;76.85;35.13;;;1.90;99.90;;;;;;4173844;28;20038;-73
2021/03/10 03:37:53;;;;;;;83.82;36.20;;;1.90;99.90;;;;;;4144034;28;20042;-74
2021/03/10 03:39:54;;;;;;;76.78;34.63;;;1.90;99.90;;;;;;4144966;28;20456;-74
2021/03/10 03:41:55;;;;;;;75.20;36.50;;;1.90;99.90;;;;;;4170165;28;20049;-74
2021/03/10 03:43:59;;;;;;;72.63;33.13;;;1.90;99.90;;;;;;4140887;28;20104;-73
2021/03/10 03:46:00;;;;;;;75.90;34.25;;;1.90;99.90;;;;;;4133848;28;20049;-74
2021/03/10 03:48:02;;;;;;;73.60;33.95;;;1.90;99.90;;;;;;4142367;28;20037;-74
2021/03/10 03:50:03;;;;;;;70.38;31.45;;;1.90;99.90;;;;;;4143342;28;20485;-74
2021/03/10 03:52:04;;;;;;;66.03;31.45;;;1.90;99.90;;;;;;4143977;28;20057;-74
2021/03/10 03:54:05;;;;;;;61.65;30.35;;;1.80;99.90;;;;;;4145649;28;20041;-74
2021/03/10 03:56:06;;;;;;;71.70;33.10;;;1.80;99.90;;;;;;4146975;28;20030;-74
2021/03/10 03:58:07;;;;;;;75.18;32.13;;;1.70;99.90;;;;;;4148471;28;20585;-74
2021/03/10 04:00:17;;;;;;;64.43;31.15;;;1.60;99.90;;;;;;4147194;28;20060;-75
2021/03/10 04:02:18;;;;;;;66.93;29.20;;;1.60;99.90;;;;;;4146811;28;20034;-75
2021/03/10 04:04:18;;;;;;;64.13;31.15;;;1.50;99.90;;;;;;4148576;28;20045;-74
2021/03/10 04:06:19;;;;;;;66.47;30.73;;;1.50;99.90;;;;;;4147066;28;20497;-74
2021/03/10 04:08:20;;;;;;;74.28;32.60;;;1.40;99.90;;;;;;4145926;28;20370;-74
2021/03/10 04:10:24;;;;;;;69.75;32.38;;;1.50;99.90;;;;;;4141297;28;20150;-74
2021/03/10 04:12:25;;;;;;;68.82;30.80;;;1.40;99.90;;;;;;4143099;28;20180;-75
2021/03/10 04:14:25;;;;;;;64.03;30.92;;;1.30;99.90;;;;;;4146837;28;20026;-74
2021/03/10 04:16:26;;;;;;;71.22;33.03;;;1.30;99.90;;;;;;4148450;28;20037;-73
2021/03/10 04:18:26;;;;;;;71.72;31.15;;;1.30;99.90;;;;;;4141843;28;20034;-74
2021/03/10 04:20:27;;;;;;;79.10;32.80;;;1.30;99.90;;;;;;4176213;28;20072;-74
2021/03/10 04:22:28;;;;;;;75.68;33.45;;;1.30;99.90;;;;;;4139521;28;20030;-74
2021/03/10 04:24:28;;;;;;;72.03;33.67;;;1.30;99.90;;;;;;4178611;28;20036;-74
2021/03/10 04:26:30;;;;;;;73.03;35.03;;;1.40;99.90;;;;;;4144504;28;20045;-74
2021/03/10 04:28:31;;;;;;;71.35;33.80;;;1.40;99.90;;;;;;4148155;28;20042;-74
2021/03/10 04:30:32;;;;;;;79.13;35.95;;;1.40;99.90;;;;;;4145651;28;20045;-74
2021/03/10 04:32:33;;;;;;;79.40;33.83;;;1.50;99.90;;;;;;4132303;28;20127;-73
2021/03/10 04:34:34;;;;;;;79.80;35.13;;;1.60;99.90;;;;;;4141178;28;20049;-74
2021/03/10 04:36:34;;;;;;;88.78;37.40;;;1.70;99.90;;;;;;4146428;28;20038;-74
2021/03/10 04:38:35;;;;;;;77.07;37.08;;;1.70;99.90;;;;;;4147716;28;20388;-74
2021/03/10 04:40:36;;;;;;;75.13;34.63;;;1.70;99.90;;;;;;4140376;28;20031;-73
2021/03/10 04:42:37;;;;;;;78.35;35.45;;;1.80;99.90;;;;;;4144961;28;20034;-73
2021/03/10 04:44:38;;;;;;;73.47;36.40;;;1.80;99.90;;;;;;4144369;28;20103;-73
2021/03/10 04:46:38;;;;;;;76.38;35.78;;;1.80;99.90;;;;;;4156895;28;20057;-73
2021/03/10 04:48:39;;;;;;;80.78;35.70;;;1.80;99.90;;;;;;4142722;28;20048;-73
2021/03/10 04:50:39;;;;;;;76.35;35.58;;;1.80;99.90;;;;;;4146563;28;20041;-73
2021/03/10 04:52:40;;;;;;;76.97;37.15;;;1.80;99.90;;;;;;4146063;28;20440;-74
2021/03/10 04:54:41;;;;;;;74.47;34.85;;;1.80;99.90;;;;;;4146121;28;20049;-74
2021/03/10 04:56:41;;;;;;;75.80;35.83;;;1.80;99.90;;;;;;4146149;28;20042;-74
2021/03/10 04:58:42;;;;;;;79.03;35.97;;;1.80;99.90;;;;;;4178013;28;20044;-75
2021/03/10 05:00:42;;;;;;;87.15;36.45;;;1.80;99.90;;;;;;4143599;28;20121;-74
2021/03/10 05:02:43;;;;;;;79.15;36.63;;;1.80;99.90;;;;;;4146583;28;20077;-74
2021/03/10 05:04:43;;;;;;;84.55;36.70;;;1.80;99.90;;;;;;4146363;28;20030;-74
2021/03/10 05:06:44;;;;;;;83.18;36.63;;;1.80;99.90;;;;;;4144032;28;20376;-74
2021/03/10 05:08:45;;;;;;;81.50;37.15;;;1.80;99.90;;;;;;4147875;28;20046;-75
2021/03/10 05:10:45;;;;;;;91.00;36.85;;;1.80;99.90;;;;;;4145218;28;20113;-75
2021/03/10 05:12:46;;;;;;;82.32;35.15;;;1.80;99.90;;;;;;4174032;28;20112;-74
2021/03/10 05:14:46;;;;;;;80.20;36.47;;;1.90;99.90;;;;;;4146589;28;20037;-74
2021/03/10 05:16:47;;;;;;;79.60;36.67;;;1.90;99.90;;;;;;4143025;28;20026;-75
2021/03/10 05:18:48;;;;;;;78.57;36.63;;;2.00;99.90;;;;;;4142817;28;20038;-74
2021/03/10 05:20:48;;;;;;;81.28;37.78;;;2.10;99.90;;;;;;4147068;28;20060;-74
2021/03/10 05:22:49;;;;;;;84.15;36.83;;;2.10;99.90;;;;;;4178206;28;20028;-74
2021/03/10 05:24:50;;;;;;;78.93;35.95;;;2.20;99.90;;;;;;4146440;28;20393;-74
2021/03/10 05:26:51;;;;;;;87.03;37.40;;;2.20;99.90;;;;;;4147032;28;20034;-74
2021/03/10 05:28:51;;;;;;;82.10;36.97;;;2.20;99.90;;;;;;4175587;28;20048;-74
2021/03/10 05:30:52;;;;;;;71.43;34.53;;;2.20;99.90;;;;;;4143889;28;20033;-74
2021/03/10 05:32:52;;;;;;;75.43;34.03;;;2.20;99.90;;;;;;4142913;28;20038;-74
2021/03/10 05:34:53;;;;;;;74.88;34.75;;;2.20;99.90;;;;;;4145222;28;20041;-74
2021/03/10 05:36:54;;;;;;;85.35;34.53;;;2.10;99.90;;;;;;4144418;28;20116;-74
2021/03/10 05:38:55;;;;;;;73.70;33.10;;;2.10;99.90;;;;;;4145333;28;20061;-75
2021/03/10 05:40:58;;;;;;;80.55;35.80;;;2.20;99.90;;;;;;4144618;28;20508;-74
2021/03/10 05:42:58;;;;;;;77.53;33.03;;;2.20;99.90;;;;;;4141756;28;20485;-74
2021/03/10 05:45:00;;;;;;;73.05;34.58;;;2.20;99.90;;;;;;4145134;28;20037;-74
2021/03/10 05:47:01;;;;;;;76.03;34.55;;;2.20;99.90;;;;;;4144776;28;20033;-74
2021/03/10 05:49:02;;;;;;;78.35;33.00;;;2.30;99.90;;;;;;4144617;28;20080;-76
2021/03/10 05:51:03;;;;;;;78.25;35.35;;;2.30;99.90;;;;;;4145640;28;20084;-74
2021/03/10 05:53:08;;;;;;;75.47;33.95;;;2.40;99.90;;;;;;4176612;28;20040;-74
2021/03/10 05:55:10;;;;;;;77.35;33.92;;;2.40;99.90;;;;;;4174051;28;20034;-74
2021/03/10 05:57:11;;;;;;;75.43;33.88;;;2.40;99.90;;;;;;4177120;28;20146;-75
2021/03/10 05:59:12;;;;;;;74.07;33.45;;;2.50;99.90;;;;;;4172520;28;20143;-74
2021/03/10 06:01:13;;;;;;;80.93;34.83;;;2.50;99.90;;;;;;4147027;28;20061;-74
2021/03/10 06:03:15;;;;;;;84.07;36.05;;;2.50;99.90;;;;;;4176191;28;20021;-74
2021/03/10 06:05:20;;;;;;;89.95;36.70;;;2.60;99.90;;;;;;4176554;28;20124;-74
2021/03/10 06:07:23;;;;;;;92.72;39.05;;;2.70;99.90;;;;;;4145590;28;20037;-74
2021/03/10 06:09:23;;;;;;;94.53;36.75;;;2.70;99.90;;;;;;4175625;28;20131;-74
2021/03/10 06:11:25;;;;;;;101.15;38.58;;;2.70;99.90;;;;;;4144012;28;20068;-74
2021/03/10 06:13:31;;;;;;;105.03;41.03;;;2.70;99.90;;;;;;4135083;28;20077;-74
2021/03/10 06:15:41;;;;;;;102.55;42.53;;;2.80;99.90;;;;;;4142435;28;20033;-74
2021/03/10 06:17:46;;;;;;;106.15;42.00;;;2.80;99.90;;;;;;4172623;28;20116;-75
2021/03/10 06:19:48;;;;;;;104.68;41.70;;;2.90;99.90;;;;;;4136395;28;20053;-74
2021/03/10 06:21:50;;;;;;;117.63;43.88;;;3.00;99.90;;;;;;4144014;28;20030;-74
2021/03/10 06:23:56;;;;;;;124.13;45.83;;;3.10;99.90;;;;;;4142391;28;20034;-74
2021/03/10 06:25:57;;;;;;;118.75;45.30;;;3.20;99.90;;;;;;4175774;28;20029;-74
2021/03/10 06:27:58;;;;;;;118.45;48.60;;;3.20;99.90;;;;;;4142406;28;20104;-74
2021/03/10 06:30:00;;;;;;;132.40;50.17;;;3.20;99.90;;;;;;4177888;28;20033;-74
2021/03/10 06:32:10;;;;;;;131.20;49.95;;;3.30;99.90;;;;;;4144422;28;20377;-75
2021/03/10 06:34:12;;;;;;;134.50;50.38;;;3.30;99.90;;;;;;4136658;28;20033;-74
2021/03/10 06:36:23;;;;;;;133.13;52.70;;;3.30;99.90;;;;;;4145379;28;20480;-74
2021/03/10 06:38:23;;;;;;;134.55;51.55;;;3.30;99.90;;;;;;4144047;28;20481;-74
2021/03/10 06:40:24;;;;;;;134.63;49.85;;;3.40;99.90;;;;;;4169118;28;20029;-74
2021/03/10 06:42:24;;;;;;;141.70;51.03;;;3.40;99.90;;;;;;4142725;28;20690;-74
2021/03/10 06:44:30;;;;;;;137.63;53.17;;;3.40;99.90;;;;;;4139553;28;20058;-74
2021/03/10 06:46:31;;;;;;;146.55;52.58;;;3.50;99.90;;;;;;4136192;28;20088;-74
2021/03/10 06:48:31;;;;;;;136.52;53.25;;;3.50;99.90;;;;;;4173004;28;20044;-75
2021/03/10 06:50:34;;;;;;;147.68;54.63;;;3.50;99.90;;;;;;4139931;28;20043;-73
2021/03/10 06:52:34;;;;;;;146.07;56.67;;;3.60;99.90;;;;;;4141571;28;20710;-73
2021/03/10 06:54:35;;;;;;;139.55;56.97;;;3.60;99.90;;;;;;4142246;28;20476;-74
2021/03/10 06:56:36;;;;;;;152.10;54.65;;;3.60;99.90;;;;;;4135897;28;20110;-74
2021/03/10 06:58:36;;;;;;;151.10;56.85;;;3.70;99.90;;;;;;4140751;28;20034;-73
2021/03/10 07:00:38;;;;;;;156.95;54.08;;;3.70;99.90;;;;;;4142873;28;20116;-72
2021/03/10 07:02:38;;;;;;;153.82;61.35;;;3.80;99.90;;;;;;4145385;28;20175;-73
2021/03/10 07:04:44;;;;;;;145.07;56.50;;;3.80;99.90;;;;;;4145026;28;20041;-73
2021/03/10 07:06:44;;;;;;;161.95;63.53;;;3.90;99.90;;;;;;4141930;28;20837;-73
2021/03/10 07:08:46;;;;;;;155.55;62.22;;;3.90;99.90;;;;;;4144987;28;20041;-74
2021/03/10 07:10:46;;;;;;;162.15;63.63;;;4.00;99.90;;;;;;4140432;28;20180;-74
2021/03/10 07:12:48;;;;;;;172.80;61.08;;;4.00;99.90;;;;;;4144523;28;21626;-73
2021/03/10 07:14:48;;;;;;;164.18;64.30;;;4.00;99.90;;;;;;4143776;28;20030;-75
2021/03/10 07:16:50;;;;;;;153.20;64.68;;;4.10;99.90;;;;;;4144187;28;20048;-74
2021/03/10 07:18:50;;;;;;;163.75;64.95;;;4.10;99.90;;;;;;4142996;28;20033;-74
2021/03/10 07:20:51;;;;;;;166.85;65.05;;;4.10;99.90;;;;;;4140803;28;20038;-74
2021/03/10 07:23:11;;;;;;;167.63;66.18;;;4.10;99.90;;;;;;4139781;28;20084;-74
2021/03/10 07:25:24;;;;;;;157.98;60.13;;;4.20;99.90;;;;;;4137956;28;20148;-74
2021/03/10 07:27:25;;;;;;;161.85;65.68;;;4.20;99.90;;;;;;4144041;28;20122;-74
2021/03/10 07:29:32;;;;;;;164.63;63.67;;;4.20;99.90;;;;;;4142362;28;20588;-74
2021/03/10 07:31:33;;;;;;;149.95;60.17;;;4.20;99.90;;;;;;4144223;28;20422;-75
2021/03/10 07:33:33;;;;;;;163.23;65.05;;;4.30;99.90;;;;;;4133062;28;20038;-74
2021/03/10 07:35:58;;;;;;;152.30;60.10;;;4.30;99.90;;;;;;4144211;28;20041;-74
2021/03/10 07:37:59;;;;;;;154.90;60.63;;;4.30;99.90;;;;;;4139739;28;20524;-74
2021/03/10 07:40:14;;;;;;;148.02;57.92;;;4.40;99.90;;;;;;4174984;28;20045;-74
2021/03/10 07:42:17;;;;;;;143.70;61.70;;;4.40;99.90;;;;;;4142481;28;20030;-74
2021/03/10 07:44:25;;;;;;;150.63;64.03;;;4.40;99.90;;;;;;4140874;28;20552;-74
2021/03/10 07:46:37;;;;;;;151.02;63.75;;;4.40;99.90;;;;;;4143138;28;20038;-74
2021/03/10 07:48:38;;;;;;;142.05;57.25;;;4.50;99.90;;;;;;4154812;28;20037;-74
2021/03/10 07:50:46;;;;;;;148.38;64.00;;;4.50;99.90;;;;;;4144712;28;20089;-75
2021/03/10 07:52:54;;;;;;;138.25;59.35;;;4.50;99.90;;;;;;4172207;28;20120;-74
2021/03/10 07:55:00;;;;;;;143.27;59.90;;;4.60;99.90;;;;;;4143952;28;20038;-74
2021/03/10 07:57:11;;;;;;;145.95;63.50;;;4.60;99.90;;;;;;4140566;28;20108;-74
2021/03/10 07:59:13;;;;;;;145.07;63.47;;;4.60;99.90;;;;;;4136916;28;20121;-74
2021/03/10 08:01:15;;;;;;;145.85;61.67;;;4.60;99.90;;;;;;4141506;28;20053;-75
2021/03/10 08:03:26;;;;;;;135.02;60.45;;;4.60;99.90;;;;;;4142732;28;20381;-74
2021/03/10 08:05:28;;;;;;;141.48;60.60;;;4.70;99.90;;;;;;4142800;28;20037;-74
2021/03/10 08:07:31;;;;;;;132.65;59.65;;;4.70;99.90;;;;;;4155498;28;20040;-75
2021/03/10 08:09:31;;;;;;;143.50;64.40;;;4.70;99.90;;;;;;4172332;28;20033;-74
2021/03/10 08:11:38;;;;;;;139.25;60.03;;;4.80;99.90;;;;;;4140726;28;20515;-74
2021/03/10 08:13:40;;;;;;;137.95;59.65;;;4.80;99.90;;;;;;4144995;28;20160;-74
2021/03/10 08:15:41;;;;;;;128.07;54.92;;;4.90;99.90;;;;;;4143786;28;20112;-74
2021/03/10 08:17:41;;;;;;;128.73;61.83;;;4.90;99.90;;;;;;4141660;28;20041;-74
2021/03/10 08:19:54;;;;;;;127.50;62.63;;;4.90;99.90;;;;;;4141148;28;20092;-74
2021/03/10 08:21:55;;;;;;;128.93;59.38;;;4.90;99.90;;;;;;4143362;28;20565;-74
2021/03/10 08:23:59;;;;;;;127.82;61.58;;;4.90;99.90;;;;;;4142635;28;20513;-74
2021/03/10 08:26:01;;;;;;;117.13;57.42;;;5.00;99.90;;;;;;4133626;28;20540;-74
2021/03/10 08:28:15;;;;;;;118.57;59.45;;;5.00;99.90;;;;;;4140774;28;20525;-75
2021/03/10 08:30:23;;;;;;;122.50;61.53;;;5.10;99.90;;;;;;4140839;28;20037;-74
2021/03/10 08:32:30;;;;;;;97.68;45.28;;;5.10;99.90;;;;;;4131707;28;20060;-73
2021/03/10 08:34:38;;;;;;;113.82;58.45;;;5.10;99.90;;;;;;4135815;28;20030;-74
2021/03/10 08:36:39;;;;;;;119.75;57.65;;;5.20;99.90;;;;;;4143139;28;20366;-74
2021/03/10 08:38:40;;;;;;;109.55;53.22;;;5.20;99.90;;;;;;4142031;28;20172;-74
2021/03/10 08:40:42;;;;;;;112.90;59.25;;;5.20;99.90;;;;;;4141066;28;20484;-74
2021/03/10 08:42:45;;;;;;;105.55;55.00;;;5.30;99.90;;;;;;4144028;28;20417;-74
2021/03/10 08:44:47;;;;;;;110.53;55.78;;;5.30;99.90;;;;;;4140742;28;20034;-74
2021/03/10 08:46:53;;;;;;;104.80;54.50;;;5.40;99.90;;;;;;4145530;28;20096;-74
2021/03/10 08:48:53;;;;;;;94.97;49.92;;;5.40;99.90;;;;;;4136794;28;20485;-74
2021/03/10 08:50:54;;;;;;;102.78;55.72;;;5.40;99.90;;;;;;4147379;28;20045;-74
2021/03/10 08:52:54;;;;;;;95.25;54.90;;;5.40;99.90;;;;;;4146313;28;20046;-74
2021/03/10 08:54:56;;;;;;;101.38;55.72;;;5.40;99.90;;;;;;4145849;28;20433;-74
2021/03/10 08:56:57;;;;;;;94.45;55.58;;;5.50;99.90;;;;;;4177744;28;20044;-74
2021/03/10 08:58:57;;;;;;;92.03;48.90;;;5.50;99.90;;;;;;4146025;28;20034;-74
2021/03/10 09:00:58;;;;;;;94.82;51.72;;;5.50;99.90;;;;;;4139187;28;20420;-74
2021/03/10 09:03:09;;;;;;;81.28;49.30;;;5.60;99.90;;;;;;4140047;28;20440;-74
2021/03/10 09:05:12;;;;;;;89.75;51.90;;;5.60;99.90;;;;;;4139173;28;20125;-74
2021/03/10 09:07:16;;;;;;;87.13;50.40;;;5.70;99.90;;;;;;4145967;28;20036;-74
2021/03/10 09:09:17;;;;;;;77.55;47.78;;;5.80;99.90;;;;;;4144789;28;20083;-74
2021/03/10 09:11:19;;;;;;;84.28;50.70;;;5.90;99.90;;;;;;4135082;28;20054;-74
2021/03/10 09:13:21;;;;;;;78.20;45.42;;;6.00;99.90;;;;;;4140910;28;20026;-75
2021/03/10 09:15:27;;;;;;;77.13;48.83;;;6.00;99.90;;;;;;4144222;28;20497;-75
2021/03/10 09:17:37;;;;;;;70.10;46.42;;;6.00;99.90;;;;;;4143373;28;20165;-74
2021/03/10 09:19:40;;;;;;;68.50;44.35;;;6.20;99.90;;;;;;4145095;28;20524;-74
2021/03/10 09:21:41;;;;;;;67.60;42.35;;;6.30;99.90;;;;;;4142818;28;20092;-73
2021/03/10 09:23:42;;;;;;;70.63;44.70;;;6.40;99.90;;;;;;4143947;28;20481;-75
2021/03/10 09:25:42;;;;;;;63.58;39.65;;;6.40;99.90;;;;;;4145260;28;20037;-73
2021/03/10 09:27:43;;;;;;;58.10;39.45;;;6.50;99.90;;;;;;4175304;28;20683;-73
2021/03/10 09:29:44;;;;;;;57.10;40.40;;;6.50;99.90;;;;;;4138026;28;20026;-75
2021/03/10 09:31:54;;;;;;;62.17;39.50;;;6.60;99.90;;;;;;4145950;28;20026;-75
2021/03/10 09:34:13;;;;;;;58.70;39.42;;;6.60;99.90;;;;;;4167542;28;20033;-75
2021/03/10 09:36:23;;;;;;;52.97;36.20;;;6.60;99.90;;;;;;4145128;28;20048;-74
2021/03/10 09:38:25;;;;;;;63.83;41.78;;;6.70;99.90;;;;;;4143450;28;20061;-74
2021/03/10 09:40:37;;;;;;;58.25;38.08;;;6.70;99.90;;;;;;4146771;28;20030;-74
2021/03/10 09:42:37;;;;;;;59.15;39.45;;;6.80;99.90;;;;;;4135902;28;20064;-75
2021/03/10 09:44:52;;;;;;;57.03;37.13;;;6.90;99.90;;;;;;4141320;28;20042;-75
2021/03/10 09:46:52;;;;;;;55.35;38.15;;;7.00;99.90;;;;;;4139787;28;20449;-75
2021/03/10 09:49:03;;;;;;;55.45;38.22;;;6.90;99.90;;;;;;4143232;28;20054;-75
2021/03/10 09:51:04;;;;;;;54.70;38.13;;;6.90;99.90;;;;;;4136982;28;20428;-75
2021/03/10 09:53:16;;;;;;;55.15;36.60;;;7.00;99.90;;;;;;4144725;28;20113;-75
2021/03/10 09:55:20;;;;;;;54.78;37.53;;;7.10;99.90;;;;;;4141546;28;20518;-75
2021/03/10 09:57:23;;;;;;;49.85;37.03;;;7.10;99.90;;;;;;4146190;28;20409;-74
2021/03/10 09:59:33;;;;;;;60.47;40.00;;;7.10;99.90;;;;;;4143116;28;20117;-75
2021/03/10 10:01:46;;;;;;;57.35;36.83;;;7.10;99.90;;;;;;4144042;28;20030;-75
2021/03/10 10:03:48;;;;;;;56.58;38.00;;;7.20;99.90;;;;;;4144401;28;20176;-75
2021/03/10 10:05:49;;;;;;;53.25;36.88;;;7.20;99.90;;;;;;4145710;28;20034;-74
2021/03/10 10:07:50;;;;;;;52.72;35.00;;;7.10;99.90;;;;;;4145002;28;20064;-75
2021/03/10 10:09:51;;;;;;;51.30;36.83;;;7.20;99.90;;;;;;4143017;28;20121;-74
2021/03/10 10:11:52;;;;;;;50.90;34.67;;;7.30;99.90;;;;;;4145601;28;20034;-74
2021/03/10 10:13:53;;;;;;;55.20;39.53;;;7.30;99.90;;;;;;4145851;28;20099;-74
2021/03/10 10:15:53;;;;;;;53.92;37.45;;;7.40;99.90;;;;;;4144248;28;20092;-73
2021/03/10 10:17:55;;;;;;;50.53;32.97;;;7.50;99.90;;;;;;4143152;28;20588;-74
2021/03/10 10:19:56;;;;;;;47.30;33.05;;;7.60;99.90;;;;;;4143946;28;20123;-74
2021/03/10 10:21:57;;;;;;;53.17;35.13;;;7.70;99.90;;;;;;4139062;28;20148;-76
2021/03/10 10:24:00;;;;;;;50.92;32.08;;;7.80;99.90;;;;;;4166194;28;20021;-74
2021/03/10 10:26:01;;;;;;;53.38;35.22;;;7.90;99.90;;;;;;4137727;28;20042;-75